Time;durP1;ratioP1;P1;durP2;ratioP2;P2;SDS_P1;SDS_P2;PMS_P1;PMS_P2;Temp;Humidity;BMP_temperature;BMP_pressure;BME280_temperature;BME280_humidity;BME280_pressure;Samples;Min_cycle;Max_cycle;Signal;HPM_P1;HPM_P2
2023/08/05 00:02:41;;;;;;;14.60;11.50;;;;;;;21.42;73.39;100779.48;1798737;78;21247;-56
2023/08/05 00:08:18;;;;;;;13.98;11.50;;;;;;;21.39;73.64;100781.91;1797887;78;21949;-56
2023/08/05 00:13:52;;;;;;;14.85;12.47;;;;;;;21.34;73.74;100778.45;1778604;77;21843;-56
2023/08/05 00:19:28;;;;;;;15.08;12.00;;;;;;;21.28;73.94;100780.76;1776314;77;21858;-56
2023/08/05 00:25:05;;;;;;;17.55;12.03;;;;;;;21.27;74.08;100780.47;1784893;77;21401;-56
2023/08/05 00:30:41;;;;;;;15.48;11.57;;;;;;;21.19;74.06;100783.58;1782806;77;21381;-56
2023/08/05 00:38:47;;;;;;;15.80;12.82;;;;;;;21.12;74.34;100775.01;1759180;79;21480;-57
2023/08/05 00:44:23;;;;;;;14.68;12.70;;;;;;;21.11;74.58;100782.50;1736094;78;21334;-57
2023/08/05 00:49:59;;;;;;;16.95;12.43;;;;;;;21.09;74.72;100777.70;1797049;78;21191;-57
2023/08/05 00:55:34;;;;;;;15.50;12.18;;;;;;;21.07;74.87;100775.72;1788068;78;21445;-57
2023/08/05 00:58:40;;;;;;;14.93;11.60;;;;;;;21.06;74.95;100778.17;1777645;77;21346;-57
2023/08/05 01:06:46;;;;;;;14.70;11.60;;;;;;;20.98;75.04;100777.66;1767301;78;21362;-55
2023/08/05 01:14:51;;;;;;;16.45;12.18;;;;;;;20.88;75.20;100785.67;1803327;77;21394;-56
2023/08/05 01:17:58;;;;;;;15.63;12.40;;;;;;;20.87;75.24;100786.77;1791182;77;22024;-56
2023/08/05 01:20:59;;;;;;;15.53;11.53;;;;;;;20.82;75.24;100787.44;1771698;78;21334;-57
2023/08/05 01:26:35;;;;;;;16.62;11.60;;;;;;;20.77;75.56;100794.27;1770170;77;21350;-56
2023/08/05 01:32:09;;;;;;;17.00;11.33;;;;;;;20.71;75.58;100786.82;1792089;78;21422;-56
2023/08/05 01:37:44;;;;;;;16.30;11.70;;;;;;;20.65;75.72;100801.67;1792784;78;21353;-57
2023/08/05 01:43:22;;;;;;;16.85;12.18;;;;;;;20.63;75.80;100803.82;1781463;77;21815;-55
2023/08/05 01:48:59;;;;;;;17.80;12.58;;;;;;;20.59;75.88;100803.99;1769880;77;21337;-57
2023/08/05 01:54:35;;;;;;;17.95;13.18;;;;;;;20.56;75.97;100808.62;1777152;77;21824;-56
2023/08/05 02:00:11;;;;;;;16.65;13.22;;;;;;;20.52;76.23;100817.11;1794256;78;21191;-55
2023/08/05 02:05:48;;;;;;;16.20;12.65;;;;;;;20.49;76.36;100818.42;1758875;78;21218;-56
2023/08/05 02:11:23;;;;;;;16.57;11.85;;;;;;;20.45;76.44;100828.33;1776663;78;21847;-57
2023/08/05 02:16:57;;;;;;;14.90;12.58;;;;;;;20.41;76.58;100825.67;1790341;77;21200;-57
2023/08/05 02:20:04;;;;;;;17.07;12.20;;;;;;;20.41;76.67;100822.89;1797469;78;21207;-57
2023/08/05 02:25:40;;;;;;;17.85;12.82;;;;;;;20.37;76.79;100831.41;1804662;78;21736;-57
2023/08/05 02:31:15;;;;;;;14.20;12.68;;;;;;;20.39;77.12;100832.56;1797610;79;21251;-56
2023/08/05 02:34:22;;;;;;;14.45;12.40;;;;;;;20.40;77.15;100828.69;1790585;77;21255;-57
2023/08/05 02:37:20;;;;;;;16.15;12.05;;;;;;;20.39;77.14;100823.66;1775278;77;21864;-57
2023/08/05 02:42:56;;;;;;;23.65;14.07;;;;;;;20.35;77.22;100822.42;1789222;78;21383;-56
2023/08/05 02:48:33;;;;;;;15.08;12.45;;;;;;;20.40;77.52;100826.77;1790429;77;21369;-56
2023/08/05 02:54:10;;;;;;;20.23;14.33;;;;;;;20.47;77.68;100827.53;1788803;77;21812;-56
2023/08/05 02:59:44;;;;;;;18.17;13.40;;;;;;;20.48;77.63;100832.57;1794557;78;21402;-56
2023/08/05 03:02:50;;;;;;;13.65;12.15;;;;;;;20.50;77.66;100835.98;1771947;77;21220;-56
2023/08/05 03:08:34;;;;;;;13.58;12.18;;;;;;;20.53;77.78;100829.39;1772441;77;21194;-57
2023/08/05 03:11:24;;;;;;;16.70;11.88;;;;;;;20.56;77.89;100826.70;1795441;78;21248;-57
2023/08/05 03:14:32;;;;;;;14.07;12.40;;;;;;;20.59;77.96;100827.11;1786519;77;21354;-57
2023/08/05 03:20:14;;;;;;;15.53;12.25;;;;;;;20.67;78.07;100835.16;1761329;78;21378;-56
2023/08/05 03:23:23;;;;;;;14.87;13.28;;;;;;;20.71;78.13;100837.77;1747395;79;21418;-57
2023/08/05 03:26:29;;;;;;;17.02;13.10;;;;;;;20.75;78.21;100839.03;1758513;77;21890;-57
2023/08/05 03:29:36;;;;;;;19.60;12.95;;;;;;;20.79;78.28;100837.47;1745484;80;21467;-56
2023/08/05 03:32:44;;;;;;;15.88;13.28;;;;;;;20.84;78.31;100835.38;1760093;79;21417;-57
2023/08/05 03:38:25;;;;;;;14.98;13.48;;;;;;;20.99;78.64;100844.25;1803474;78;21401;-56
2023/08/05 03:44:02;;;;;;;18.57;13.60;;;;;;;21.11;78.66;100845.69;1805029;79;21316;-56
2023/08/05 03:49:37;;;;;;;16.62;13.13;;;;;;;21.20;78.77;100845.14;1809483;78;21718;-56
2023/08/05 03:52:44;;;;;;;17.75;13.53;;;;;;;21.27;78.89;100851.48;1768780;79;21357;-55
2023/08/05 03:58:19;;;;;;;21.10;13.62;;;;;;;21.42;78.96;100853.30;1775829;78;21405;-55
2023/08/05 04:03:56;;;;;;;18.67;13.15;;;;;;;21.56;79.02;100855.38;1780765;78;21853;-56
2023/08/05 04:09:32;;;;;;;19.10;13.83;;;;;;;21.70;79.15;100856.36;1746186;79;21407;-56
2023/08/05 04:15:08;;;;;;;19.62;13.32;;;;;;;21.87;79.25;100856.02;1768837;79;21420;-56
2023/08/05 04:18:15;;;;;;;19.70;13.88;;;;;;;21.95;79.29;100852.89;1783915;79;21319;-56
2023/08/05 04:23:49;;;;;;;18.15;14.47;;;;;;;22.12;79.38;100862.26;1771239;78;21185;-56
2023/08/05 04:29:24;;;;;;;19.40;14.60;;;;;;;22.27;79.39;100871.56;1801214;77;21334;-56
2023/08/05 04:35:00;;;;;;;19.73;14.30;;;;;;;22.42;79.46;100862.73;1803603;78;21215;-57
2023/08/05 04:40:36;;;;;;;17.98;16.07;;;;;;;22.58;79.57;100876.01;1804253;78;21216;-56
2023/08/05 04:46:11;;;;;;;14.73;13.22;;;;;;;22.78;79.70;100877.87;1805468;79;21226;-57
2023/08/05 04:51:47;;;;;;;14.75;12.90;;;;;;;22.98;79.73;100878.34;1797865;78;21250;-56
2023/08/05 04:57:22;;;;;;;15.05;13.55;;;;;;;23.14;79.74;100874.26;1756793;79;21763;-56
2023/08/05 05:02:57;;;;;;;16.87;12.73;;;;;;;23.33;79.77;100879.16;1760892;77;21208;-56
2023/08/05 05:08:33;;;;;;;18.42;14.75;;;;;;;23.48;79.79;100876.70;1744861;78;21808;-57
2023/08/05 05:14:08;;;;;;;13.88;12.43;;;;;;;23.68;79.84;100867.31;1782021;78;21719;-57
2023/08/05 05:17:15;;;;;;;15.25;12.68;;;;;;;23.76;79.84;100863.27;1770427;77;21211;-57
2023/08/05 05:22:51;;;;;;;14.87;12.53;;;;;;;23.97;79.90;100863.45;1736595;79;21317;-57
2023/08/05 05:28:26;;;;;;;14.23;12.73;;;;;;;24.14;79.85;100858.72;1724685;79;21787;-57
2023/08/05 05:34:03;;;;;;;22.05;12.68;;;;;;;24.29;79.82;100865.96;1743863;79;21312;-57
2023/08/05 05:42:05;;;;;;;14.18;11.90;;;;;;;24.52;79.84;100870.01;1725761;80;21275;-57
2023/08/05 05:45:13;;;;;;;15.32;11.70;;;;;;;24.60;79.85;100872.38;1811255;77;21183;-57
2023/08/05 05:48:20;;;;;;;18.27;11.85;;;;;;;24.69;79.84;100867.21;1789936;78;21287;-57
2023/08/05 05:51:25;;;;;;;13.18;11.05;;;;;;;24.79;79.80;100860.37;1750747;79;21790;-57
2023/08/05 05:57:01;;;;;;;13.75;11.20;;;;;;;24.98;79.80;100847.23;1806817;76;21224;-57
2023/08/05 06:00:09;;;;;;;13.65;10.60;;;;;;;25.04;79.72;100843.38;1757873;79;21750;-57
2023/08/05 06:05:45;;;;;;;12.53;10.55;;;;;;;25.24;79.70;100840.56;1770261;77;21227;-56
2023/08/05 06:11:20;;;;;;;12.00;10.75;;;;;;;25.37;79.47;100842.44;1748619;80;21259;-56
2023/08/05 06:14:33;;;;;;;11.08;9.93;;;;;;;25.44;79.40;100840.84;1763330;77;21870;-56
2023/08/05 06:20:15;;;;;;;11.78;9.68;;;;;;;25.60;79.33;100839.91;1754115;79;21428;-58
2023/08/05 06:23:21;;;;;;;11.10;9.93;;;;;;;25.67;79.23;100844.19;1778158;78;21350;-57
2023/08/05 06:25:49;;;;;;;11.57;8.93;;;;;;;25.75;79.10;100842.32;1766676;79;21576;-58
2023/08/05 06:28:58;;;;;;;11.28;8.35;;;;;;;25.81;79.03;100841.29;1749977;78;21407;-56
2023/08/05 06:32:04;;;;;;;12.37;8.55;;;;;;;25.89;78.87;100849.23;1725321;79;21485;-57
2023/08/05 06:35:12;;;;;;;9.60;8.60;;;;;;;25.96;78.66;100846.19;1765468;79;21280;-56
2023/08/05 06:40:51;;;;;;;10.95;8.20;;;;;;;26.11;78.43;100850.05;1762158;78;21289;-57
2023/08/05 06:46:27;;;;;;;11.35;8.83;;;;;;;26.25;78.15;100844.28;1764016;79;21287;-58
2023/08/05 06:49:35;;;;;;;14.35;8.90;;;;;;;26.31;78.02;100842.34;1692134;80;21244;-56
2023/08/05 06:57:39;;;;;;;11.08;8.70;;;;;;;26.55;77.54;100835.79;1792083;77;21450;-57
2023/08/05 07:03:15;;;;;;;9.40;8.20;;;;;;;26.67;77.09;100831.70;1811581;77;21223;-58
2023/08/05 07:06:21;;;;;;;9.38;8.38;;;;;;;26.73;76.91;100827.83;1806591;77;21733;-57
2023/08/05 07:11:56;;;;;;;9.20;8.15;;;;;;;26.85;76.50;100827.05;1828255;77;21346;-57
2023/08/05 07:17:32;;;;;;;10.72;8.95;;;;;;;26.97;76.16;100819.83;1809326;77;21366;-57
2023/08/05 07:23:06;;;;;;;9.60;8.60;;;;;;;27.10;75.82;100817.93;1795451;78;21220;-57
2023/08/05 07:31:15;;;;;;;9.55;8.53;;;;;;;27.29;75.26;100822.81;1795468;78;21399;-57
2023/08/05 07:39:23;;;;;;;10.28;8.63;;;;;;;27.49;74.69;100811.66;1782663;77;21315;-57
2023/08/05 07:45:06;;;;;;;9.95;8.60;;;;;;;27.62;74.28;100812.52;1772995;77;21371;-57
2023/08/05 07:50:36;;;;;;;11.33;8.35;;;;;;;27.73;73.87;100812.00;1789943;78;21239;-58
2023/08/05 07:53:43;;;;;;;9.30;8.40;;;;;;;27.78;73.66;100807.80;1782390;78;21421;-58
2023/08/05 07:59:20;;;;;;;16.07;9.25;;;;;;;27.93;73.45;100802.20;1803065;77;21465;-58
2023/08/05 08:04:58;;;;;;;8.78;7.87;;;;;;;28.06;72.96;100812.07;1771445;77;21733;-58
2023/08/05 08:13:02;;;;;;;12.40;8.80;;;;;;;28.21;72.20;100809.28;1785498;77;21414;-57
2023/08/05 08:16:08;;;;;;;9.28;7.72;;;;;;;28.26;71.99;100806.47;1768843;76;22466;-57
2023/08/05 08:24:15;;;;;;;11.97;8.23;;;;;;;28.39;71.19;100793.20;1777977;77;21850;-58
2023/08/05 08:29:51;;;;;;;10.70;7.80;;;;;;;28.48;71.14;100798.59;1773599;78;21746;-57
2023/08/05 08:35:26;;;;;;;8.38;7.40;;;;;;;28.54;70.17;100790.41;1806497;77;21206;-57
2023/08/05 08:41:04;;;;;;;9.38;7.78;;;;;;;28.63;69.75;100787.28;1816886;78;21374;-58
2023/08/05 08:46:40;;;;;;;12.37;7.75;;;;;;;28.74;69.14;100796.00;1781386;78;22091;-56
2023/08/05 08:52:15;;;;;;;8.80;7.37;;;;;;;28.87;68.85;100778.50;1751961;80;21211;-56
2023/08/05 08:55:20;;;;;;;9.05;7.70;;;;;;;28.96;68.58;100779.58;1738058;80;21187;-57
2023/08/05 09:00:54;;;;;;;9.40;7.03;;;;;;;29.06;67.98;100771.98;1810996;78;21350;-55
2023/08/05 09:06:29;;;;;;;10.25;7.42;;;;;;;29.18;67.52;100780.95;1793753;78;21256;-57
2023/08/05 09:12:06;;;;;;;9.20;6.78;;;;;;;29.29;67.01;100769.63;1803628;78;21469;-56
2023/08/05 09:15:13;;;;;;;9.35;7.45;;;;;;;29.35;66.68;100774.10;1802019;78;21204;-58
2023/08/05 09:20:48;;;;;;;9.95;6.67;;;;;;;29.49;66.12;100762.45;1796719;78;21374;-57
2023/08/05 09:26:35;;;;;;;8.95;7.00;;;;;;;29.61;65.69;100757.28;1796745;78;21226;-59
2023/08/05 09:29:40;;;;;;;11.25;6.92;;;;;;;29.70;65.46;100757.00;1735357;79;21410;-57
2023/08/05 09:32:47;;;;;;;9.85;6.40;;;;;;;29.77;65.18;100756.94;1783208;78;21771;-56
2023/08/05 09:35:53;;;;;;;8.18;6.90;;;;;;;29.82;64.80;100758.87;1786971;78;21403;-58
2023/08/05 09:39:13;;;;;;;10.63;6.70;;;;;;;29.88;64.52;100757.70;1791386;79;21399;-57
2023/08/05 09:45:02;;;;;;;9.03;6.00;;;;;;;30.04;64.00;100747.41;1818604;77;21214;-57
2023/08/05 09:48:09;;;;;;;8.17;6.60;;;;;;;30.06;63.60;100740.91;1817477;76;21388;-57
2023/08/05 09:56:18;;;;;;;7.00;6.40;;;;;;;30.25;62.85;100746.13;1805031;76;21238;-58
2023/08/05 10:01:49;;;;;;;6.83;6.17;;;;;;;30.35;62.25;100743.19;1838996;77;21339;-59
2023/08/05 10:04:56;;;;;;;7.67;6.87;;;;;;;30.38;62.02;100742.59;1835795;77;21411;-58
2023/08/05 10:10:30;;;;;;;7.55;6.00;;;;;;;30.50;61.67;100740.78;1832242;77;21320;-56
2023/08/05 10:13:36;;;;;;;7.85;6.33;;;;;;;30.56;61.41;100743.82;1836223;77;21380;-56
2023/08/05 10:19:12;;;;;;;7.95;6.42;;;;;;;30.69;60.70;100727.57;1791708;76;21247;-57
2023/08/05 10:25:05;;;;;;;7.33;6.25;;;;;;;30.78;60.21;100720.73;1757628;80;21247;-57
2023/08/05 10:28:10;;;;;;;10.60;6.33;;;;;;;30.82;59.98;100722.65;1730452;80;21358;-58
2023/08/05 10:31:34;;;;;;;8.30;6.42;;;;;;;30.87;59.71;100721.74;1740363;80;21933;-56
2023/08/05 10:34:40;;;;;;;7.60;6.22;;;;;;;30.93;59.37;100723.36;1751502;80;21377;-57
2023/08/05 10:37:57;;;;;;;9.25;7.20;;;;;;;30.99;59.12;100721.58;1751879;80;22050;-59
2023/08/05 10:41:04;;;;;;;9.25;6.83;;;;;;;31.08;58.91;100717.52;1760341;79;21207;-57
2023/08/05 10:43:48;;;;;;;10.65;6.72;;;;;;;31.18;58.70;100725.85;1754902;80;21393;-60
2023/08/05 10:46:26;;;;;;;7.60;6.83;;;;;;;31.24;58.43;100721.83;1704415;80;21143;-56
2023/08/05 10:49:32;;;;;;;8.88;7.00;;;;;;;31.30;58.27;100712.12;1746684;80;21447;-57
2023/08/05 10:52:38;;;;;;;7.72;6.87;;;;;;;31.36;58.02;100714.61;1741240;81;21222;-56
2023/08/05 10:56:00;;;;;;;7.55;6.65;;;;;;;31.46;57.85;100717.86;1761677;80;21871;-57
2023/08/05 10:59:06;;;;;;;8.33;6.50;;;;;;;31.56;57.65;100722.79;1744322;80;21266;-56
2023/08/05 11:02:13;;;;;;;8.90;6.22;;;;;;;31.71;57.33;100721.72;1747593;79;21299;-57
2023/08/05 11:05:20;;;;;;;8.78;6.65;;;;;;;31.79;57.06;100719.02;1755067;81;21369;-57
2023/08/05 11:10:57;;;;;;;8.35;6.72;;;;;;;31.89;56.46;100715.20;1764789;79;21219;-56
2023/08/05 11:16:32;;;;;;;9.38;6.78;;;;;;;32.03;56.02;100709.61;1745748;79;21886;-59
2023/08/05 11:22:07;;;;;;;10.10;7.65;;;;;;;32.21;55.59;100701.05;1745262;80;21866;-56
2023/08/05 11:27:51;;;;;;;9.38;6.65;;;;;;;32.36;55.03;100702.20;1705036;80;21942;-59
2023/08/05 11:38:24;;;;;;;8.05;5.92;;;;;;;32.54;53.75;100682.05;1774055;77;21379;-61
2023/08/05 11:43:58;;;;;;;10.13;6.17;;;;;;;32.61;53.10;100682.45;1774030;76;21708;-57
2023/08/05 11:49:34;;;;;;;7.30;6.10;;;;;;;32.67;52.60;100679.77;1798885;76;21222;-57
2023/08/05 11:55:12;;;;;;;7.80;5.97;;;;;;;32.71;52.02;100676.02;1797421;77;21838;-58
2023/08/05 12:01:07;;;;;;;7.58;6.20;;;;;;;32.67;51.40;100676.36;1793599;77;22073;-58
2023/08/05 12:04:17;;;;;;;9.93;6.20;;;;;;;32.69;51.21;100678.88;1649351;81;21299;-58
2023/08/05 12:07:27;;;;;;;6.78;5.60;;;;;;;32.67;50.86;100669.84;1656083;81;21780;-59
2023/08/05 12:10:34;;;;;;;6.90;6.00;;;;;;;32.66;50.60;100669.59;1682242;80;21262;-57
2023/08/05 12:13:43;;;;;;;8.10;5.90;;;;;;;32.62;50.26;100670.80;1689138;80;21270;-59
2023/08/05 12:16:53;;;;;;;7.62;6.40;;;;;;;32.56;49.99;100670.64;1688127;81;21296;-60
2023/08/05 12:19:58;;;;;;;7.55;5.85;;;;;;;32.52;49.72;100661.09;1713670;80;21295;-57
2023/08/05 12:23:05;;;;;;;6.85;5.53;;;;;;;32.46;49.43;100659.48;1692487;80;21230;-57
2023/08/05 12:26:15;;;;;;;8.35;5.90;;;;;;;32.42;49.32;100653.34;1697832;79;21338;-57
2023/08/05 12:29:20;;;;;;;7.95;6.17;;;;;;;32.39;49.08;100657.67;1705401;79;22554;-57
2023/08/05 12:32:27;;;;;;;7.67;6.20;;;;;;;32.32;48.83;100645.85;1706748;79;21267;-58
2023/08/05 12:35:32;;;;;;;8.08;5.70;;;;;;;32.28;48.68;100649.06;1708206;79;22064;-58
2023/08/05 12:38:38;;;;;;;7.40;5.97;;;;;;;32.25;48.45;100647.42;1709479;79;21243;-58
2023/08/05 12:41:45;;;;;;;11.05;6.50;;;;;;;32.22;48.24;100648.05;1695626;79;21306;-58
2023/08/05 12:44:53;;;;;;;6.70;5.95;;;;;;;32.16;48.05;100647.30;1708218;80;21741;-57
2023/08/05 12:48:00;;;;;;;6.60;5.90;;;;;;;32.14;47.87;100641.13;1708392;80;21239;-56
2023/08/05 12:51:06;;;;;;;7.45;6.37;;;;;;;32.09;47.65;100646.87;1697568;79;21324;-57
2023/08/05 12:54:13;;;;;;;7.75;6.40;;;;;;;32.06;47.53;100645.23;1695221;80;21294;-56
2023/08/05 12:57:20;;;;;;;7.10;6.17;;;;;;;32.00;47.46;100639.66;1704242;80;21264;-57
2023/08/05 13:00:27;;;;;;;8.48;5.87;;;;;;;31.99;47.34;100632.89;1699368;79;21283;-59
2023/08/05 13:03:33;;;;;;;8.00;6.62;;;;;;;31.97;47.29;100635.19;1709873;80;21236;-59
2023/08/05 13:06:39;;;;;;;8.03;6.78;;;;;;;32.01;47.35;100634.84;1690201;80;21689;-59
2023/08/05 13:09:44;;;;;;;10.20;6.45;;;;;;;32.04;47.28;100632.80;1715645;79;21295;-58
2023/08/05 13:12:50;;;;;;;10.48;6.40;;;;;;;32.06;47.18;100639.57;1698608;80;21305;-57
2023/08/05 13:15:56;;;;;;;7.40;6.08;;;;;;;32.06;47.05;100638.16;1707719;80;21326;-56
2023/08/05 13:19:03;;;;;;;6.42;5.83;;;;;;;32.03;46.95;100627.70;1712183;81;21275;-59
2023/08/05 13:22:08;;;;;;;8.45;6.72;;;;;;;32.05;46.86;100637.30;1706557;80;21776;-58
2023/08/05 13:25:15;;;;;;;9.35;5.97;;;;;;;32.01;46.73;100632.02;1707472;80;21650;-58
2023/08/05 13:28:20;;;;;;;7.15;6.40;;;;;;;32.00;46.66;100626.05;1658200;81;21298;-60
2023/08/05 13:31:26;;;;;;;8.48;6.05;;;;;;;31.99;46.60;100624.39;1706133;80;21302;-57
2023/08/05 13:34:32;;;;;;;8.05;6.67;;;;;;;31.99;46.52;100625.80;1660866;80;21323;-57
2023/08/05 13:37:41;;;;;;;9.05;5.95;;;;;;;31.98;46.42;100624.14;1666165;82;21263;-57
2023/08/05 13:40:49;;;;;;;8.55;6.10;;;;;;;31.99;46.35;100620.98;1686109;82;21253;-59
2023/08/05 13:43:57;;;;;;;8.70;6.20;;;;;;;32.00;46.21;100616.14;1674033;81;21283;-58
2023/08/05 13:47:04;;;;;;;7.12;6.08;;;;;;;31.99;46.15;100608.24;1672286;82;21430;-60
2023/08/05 13:50:13;;;;;;;8.05;6.28;;;;;;;31.99;46.03;100605.41;1679361;80;21322;-56
2023/08/05 13:53:18;;;;;;;7.53;5.97;;;;;;;31.99;45.93;100607.39;1674625;83;21762;-59
2023/08/05 13:56:26;;;;;;;8.03;6.95;;;;;;;31.98;45.94;100603.70;1690864;79;21317;-58
2023/08/05 13:59:33;;;;;;;10.30;6.40;;;;;;;32.15;45.88;100602.27;1722122;79;21240;-57
2023/08/05 14:02:41;;;;;;;9.18;6.85;;;;;;;32.16;45.79;100595.47;1731557;79;21257;-58
2023/08/05 14:05:48;;;;;;;12.33;6.53;;;;;;;32.14;45.78;100598.62;1730995;79;21278;-57
2023/08/05 14:08:54;;;;;;;6.85;6.15;;;;;;;32.13;45.78;100608.85;1734261;79;21785;-58
2023/08/05 14:12:01;;;;;;;7.72;6.03;;;;;;;32.20;45.77;100605.01;1721275;78;21343;-56
2023/08/05 14:15:08;;;;;;;7.40;6.10;;;;;;;32.34;45.75;100610.95;1737515;78;22179;-59
2023/08/05 14:18:14;;;;;;;10.18;6.33;;;;;;;32.34;45.70;100610.11;1727666;79;21347;-58
2023/08/05 14:21:22;;;;;;;10.58;6.17;;;;;;;32.28;45.64;100603.72;1724631;80;21776;-57
2023/08/05 14:24:29;;;;;;;9.60;6.30;;;;;;;32.21;45.60;100598.17;1729609;79;21228;-58
2023/08/05 14:27:36;;;;;;;7.42;6.47;;;;;;;32.17;45.62;100599.41;1711667;79;21246;-58
2023/08/05 14:30:46;;;;;;;8.23;6.00;;;;;;;32.11;45.59;100596.41;1706713;79;21312;-56
2023/08/05 14:33:52;;;;;;;8.08;6.42;;;;;;;32.08;45.69;100590.52;1713584;80;21402;-59
2023/08/05 14:36:59;;;;;;;8.70;5.92;;;;;;;32.08;45.71;100591.94;1712167;79;21243;-59
2023/08/05 14:40:06;;;;;;;8.35;6.08;;;;;;;32.16;45.72;100593.45;1706735;79;21284;-58
2023/08/05 14:43:13;;;;;;;8.20;6.00;;;;;;;32.21;45.64;100586.84;1703003;79;21245;-57
2023/08/05 14:46:18;;;;;;;7.53;5.83;;;;;;;32.17;45.58;100582.97;1716605;78;21433;-58
2023/08/05 14:49:25;;;;;;;7.92;6.20;;;;;;;32.11;45.62;100580.83;1702375;80;21781;-58
2023/08/05 14:52:31;;;;;;;9.70;5.97;;;;;;;32.08;45.67;100577.17;1674640;81;21290;-58
2023/08/05 14:55:37;;;;;;;6.83;6.12;;;;;;;32.09;45.65;100573.78;1681036;81;21343;-59
2023/08/05 14:58:43;;;;;;;6.40;5.55;;;;;;;32.09;45.60;100571.80;1682903;80;21213;-58
2023/08/05 15:01:48;;;;;;;6.12;5.53;;;;;;;32.07;45.66;100574.09;1677396;81;21262;-58
2023/08/05 15:04:55;;;;;;;6.62;5.50;;;;;;;32.09;45.69;100567.55;1677008;81;21263;-59
2023/08/05 15:08:02;;;;;;;5.65;5.03;;;;;;;32.10;45.59;100574.88;1689172;81;21232;-59
2023/08/05 15:11:11;;;;;;;8.00;5.70;;;;;;;32.09;45.60;100577.45;1720698;78;21255;-58
2023/08/05 15:14:20;;;;;;;6.30;5.58;;;;;;;32.09;45.50;100567.55;1709833;80;21285;-59
2023/08/05 15:17:25;;;;;;;6.83;5.70;;;;;;;32.04;45.51;100566.22;1697765;79;21232;-59
2023/08/05 15:20:32;;;;;;;10.70;5.70;;;;;;;31.95;45.56;100570.34;1690569;81;21247;-58
2023/08/05 15:23:38;;;;;;;8.70;5.53;;;;;;;31.90;45.68;100564.77;1711062;80;21327;-59
2023/08/05 15:26:46;;;;;;;7.45;5.28;;;;;;;31.92;45.89;100563.89;1702051;80;21880;-59
2023/08/05 15:29:58;;;;;;;6.80;5.80;;;;;;;32.19;45.92;100563.66;1689755;79;21284;-58
2023/08/05 15:33:04;;;;;;;8.75;5.60;;;;;;;32.69;45.74;100561.19;1688448;80;21282;-57
2023/08/05 15:36:21;;;;;;;6.80;6.08;;;;;;;33.09;45.22;100565.36;1683836;81;21237;-57
2023/08/05 15:39:27;;;;;;;10.38;5.67;;;;;;;33.02;45.03;100562.72;1679943;81;21256;-58
2023/08/05 15:42:33;;;;;;;9.38;5.72;;;;;;;32.82;45.06;100563.16;1645255;83;21227;-59
2023/08/05 15:48:08;;;;;;;6.75;6.05;;;;;;;32.46;45.19;100565.94;1677241;82;21263;-58
2023/08/05 15:53:42;;;;;;;7.42;6.03;;;;;;;32.22;45.46;100561.05;1702997;80;21243;-59
2023/08/05 15:59:17;;;;;;;7.62;6.20;;;;;;;32.03;45.68;100552.37;1710493;79;21894;-57
2023/08/05 16:02:23;;;;;;;7.37;6.12;;;;;;;31.98;45.78;100547.05;1695018;79;21349;-58
2023/08/05 16:08:00;;;;;;;11.83;6.62;;;;;;;31.92;45.86;100544.66;1672359;82;21930;-58
2023/08/05 16:13:36;;;;;;;8.95;6.50;;;;;;;32.02;45.80;100544.44;1673994;80;21903;-58
2023/08/05 16:19:14;;;;;;;7.42;6.20;;;;;;;31.73;46.05;100546.69;1701847;82;21303;-57
2023/08/05 16:24:50;;;;;;;11.10;6.45;;;;;;;31.40;46.53;100552.07;1710930;79;21239;-57
2023/08/05 16:30:26;;;;;;;11.63;6.75;;;;;;;31.11;46.84;100547.17;1709080;80;21259;-58
2023/08/05 16:36:01;;;;;;;7.72;6.75;;;;;;;30.82;47.17;100535.17;1709030;79;21236;-58
2023/08/05 16:39:06;;;;;;;8.85;7.03;;;;;;;30.68;47.37;100542.95;1698332;80;21449;-58
2023/08/05 16:44:42;;;;;;;9.20;7.12;;;;;;;30.34;47.77;100532.98;1703623;79;21531;-58
2023/08/05 16:50:17;;;;;;;12.47;7.42;;;;;;;30.04;48.11;100538.41;1716594;79;21300;-58
2023/08/05 16:55:52;;;;;;;9.93;7.95;;;;;;;29.75;48.47;100539.60;1708269;79;21618;-58
2023/08/05 17:01:26;;;;;;;12.68;7.80;;;;;;;29.49;48.94;100532.48;1667642;80;21229;-58
2023/08/05 17:07:03;;;;;;;10.80;7.60;;;;;;;29.05;49.63;100541.84;1706356;80;21255;-58
2023/08/05 17:12:40;;;;;;;14.28;7.37;;;;;;;28.92;49.80;100534.63;1679232;81;21263;-58
2023/08/05 17:20:47;;;;;;;13.32;7.72;;;;;;;28.55;50.46;100537.95;1689081;79;21310;-58
2023/08/05 17:23:53;;;;;;;13.32;8.75;;;;;;;28.46;50.68;100536.00;1669389;81;22189;-57
2023/08/05 17:29:30;;;;;;;16.77;8.33;;;;;;;28.22;51.14;100546.24;1721207;78;21594;-57
2023/08/05 17:35:04;;;;;;;17.75;9.10;;;;;;;27.99;51.58;100545.49;1685967;82;21551;-56
2023/08/05 17:40:39;;;;;;;20.15;8.05;;;;;;;27.76;51.92;100537.92;1696524;79;21258;-57
2023/08/05 17:46:14;;;;;;;16.17;7.90;;;;;;;27.57;52.32;100540.20;1708348;79;21383;-57
2023/08/05 17:51:52;;;;;;;27.98;15.95;;;;;;;27.39;52.68;100543.58;1701110;79;21254;-57
2023/08/05 17:57:28;;;;;;;35.52;19.57;;;;;;;27.18;53.06;100539.89;1683875;81;21239;-57
2023/08/05 18:05:33;;;;;;;33.78;19.90;;;;;;;26.90;53.62;100537.63;1682270;79;21401;-57
2023/08/05 18:08:39;;;;;;;31.87;17.07;;;;;;;26.83;53.77;100539.86;1662885;82;21314;-57
2023/08/05 18:14:14;;;;;;;28.75;14.18;;;;;;;26.66;54.22;100543.48;1706509;80;21737;-57
2023/08/05 18:17:21;;;;;;;20.20;13.08;;;;;;;26.60;54.37;100543.72;1692868;80;21756;-57
2023/08/05 18:22:57;;;;;;;25.65;12.95;;;;;;;26.42;54.79;100540.84;1702562;80;21296;-57
2023/08/05 18:28:32;;;;;;;30.88;14.73;;;;;;;26.27;55.14;100533.80;1702154;80;21429;-56
2023/08/05 18:34:09;;;;;;;31.10;15.95;;;;;;;26.12;55.52;100536.52;1658767;82;21247;-56
2023/08/05 18:39:46;;;;;;;24.52;14.05;;;;;;;26.00;55.92;100536.77;1708393;80;21307;-56
2023/08/05 18:45:21;;;;;;;23.73;13.18;;;;;;;25.91;56.28;100534.14;1696422;81;21401;-56
2023/08/05 18:50:58;;;;;;;26.62;13.48;;;;;;;25.81;56.57;100537.45;1658876;80;21458;-57
2023/08/05 18:59:03;;;;;;;24.10;14.35;;;;;;;25.64;56.96;100545.22;1684843;81;21789;-56
2023/08/05 19:04:40;;;;;;;21.52;14.40;;;;;;;25.53;57.31;100540.07;1661232;83;21263;-57
2023/08/05 19:10:16;;;;;;;21.50;13.93;;;;;;;25.43;57.63;100536.36;1655023;82;21268;-56
2023/08/05 19:15:52;;;;;;;22.93;13.98;;;;;;;25.33;57.93;100541.30;1627667;83;21278;-57
2023/08/05 19:23:58;;;;;;;16.55;12.98;;;;;;;25.16;58.28;100543.41;1680472;80;21760;-57
2023/08/05 19:27:05;;;;;;;22.30;13.90;;;;;;;25.13;58.42;100536.09;1683617;81;21744;-57
2023/08/05 19:30:02;;;;;;;14.87;12.37;;;;;;;25.09;58.62;100532.97;1725433;78;21178;-58
2023/08/05 19:33:09;;;;;;;18.77;12.50;;;;;;;25.05;58.73;100542.45;1708533;80;21586;-57
2023/08/05 19:38:46;;;;;;;21.25;12.90;;;;;;;24.95;59.00;100540.98;1723150;79;21918;-57
2023/08/05 19:46:52;;;;;;;16.95;12.30;;;;;;;24.86;59.37;100530.53;1730367;79;21823;-57
2023/08/05 19:52:28;;;;;;;20.17;11.90;;;;;;;24.76;59.57;100528.47;1719255;79;21401;-57
2023/08/05 19:55:33;;;;;;;16.82;11.57;;;;;;;24.72;59.65;100527.30;1732442;78;21414;-57
2023/08/05 20:03:37;;;;;;;16.80;11.60;;;;;;;24.61;60.12;100517.06;1739096;79;21264;-56
2023/08/05 20:09:13;;;;;;;13.75;11.35;;;;;;;24.53;60.31;100513.34;1730985;80;21254;-57
2023/08/05 20:17:19;;;;;;;15.60;12.20;;;;;;;24.40;60.61;100517.98;1722689;79;21354;-55
2023/08/05 20:20:25;;;;;;;13.85;12.07;;;;;;;24.37;60.73;100515.67;1717774;79;21345;-56
2023/08/05 20:26:01;;;;;;;15.90;12.68;;;;;;;24.30;60.97;100512.26;1730361;79;21410;-56
2023/08/05 20:34:08;;;;;;;20.45;13.80;;;;;;;24.18;61.29;100507.34;1720850;79;21409;-57
2023/08/05 20:39:45;;;;;;;19.87;13.85;;;;;;;24.12;61.53;100509.78;1724587;79;21851;-57
2023/08/05 20:45:21;;;;;;;19.70;12.78;;;;;;;24.07;61.73;100504.13;1727004;78;21877;-57
2023/08/05 20:51:04;;;;;;;14.78;11.70;;;;;;;24.00;61.95;100502.64;1700003;79;21977;-57
2023/08/05 20:54:11;;;;;;;14.47;12.37;;;;;;;23.98;62.05;100500.10;1671826;82;21254;-57
2023/08/05 20:57:17;;;;;;;21.85;12.63;;;;;;;23.96;62.19;100500.88;1675863;82;21390;-57